createdAt,value
2022-08-26T00:00:55.371Z,58.99
2022-08-26T00:03:41.046Z,57.96
2022-08-26T00:06:25.232Z,57.82
2022-08-26T00:09:09.851Z,57.37
2022-08-26T00:11:54.733Z,56.74
2022-08-26T00:14:38.842Z,56.92
2022-08-26T00:17:22.861Z,56.54
2022-08-26T00:20:11.355Z,55.45
2022-08-26T00:22:55.755Z,56.19
2022-08-26T00:25:42.618Z,56.15
2022-08-26T00:28:27.026Z,55.54
2022-08-26T00:31:11.303Z,55.71
2022-08-26T00:33:55.764Z,55.68
2022-08-26T00:36:41.564Z,55.69
2022-08-26T00:39:25.745Z,55.42
2022-08-26T00:42:09.949Z,55.17
2022-08-26T00:44:55.021Z,55.78
2022-08-26T00:47:45.210Z,55.45
2022-08-26T00:50:34.676Z,56.23
2022-08-26T00:53:27.865Z,56.89
2022-08-26T00:56:21.768Z,56.41
2022-08-26T00:59:09.704Z,57.10
2022-08-26T01:01:54.300Z,56.95
2022-08-26T01:04:40.392Z,57.22
2022-08-26T01:07:27.631Z,57.47
2022-08-26T01:10:19.298Z,57.06
2022-08-26T01:13:07.224Z,56.62
2022-08-26T01:15:54.815Z,56.67
2022-08-26T01:18:41.114Z,56.53
2022-08-26T01:21:30.615Z,56.91
2022-08-26T01:24:16.430Z,56.52
2022-08-26T01:27:05.257Z,56.52
2022-08-26T01:29:52.005Z,56.23
2022-08-26T01:32:38.952Z,55.48
2022-08-26T01:35:23.537Z,54.68
2022-08-26T01:38:07.925Z,54.68
2022-08-26T01:40:54.499Z,54.50
2022-08-26T01:43:41.024Z,54.48
2022-08-26T01:46:26.183Z,54.38
2022-08-26T01:49:11.992Z,53.92
2022-08-26T01:51:58.493Z,54.04
2022-08-26T01:54:42.712Z,54.16
2022-08-26T01:57:32.545Z,53.99
2022-08-26T02:00:18.886Z,54.29
2022-08-26T02:03:19.229Z,53.89
2022-08-26T02:06:09.188Z,53.93
2022-08-26T02:08:56.965Z,53.38
2022-08-26T02:11:41.090Z,52.78
2022-08-26T02:14:31.365Z,52.40
2022-08-26T02:17:16.087Z,52.58
2022-08-26T02:20:00.584Z,52.34
2022-08-26T02:22:46.124Z,52.35
2022-08-26T02:25:35.349Z,52.29
2022-08-26T02:28:19.897Z,52.13
2022-08-26T02:31:05.804Z,52.15
2022-08-26T02:33:52.175Z,51.69
2022-08-26T02:36:36.305Z,51.89
2022-08-26T02:39:22.377Z,51.54
2022-08-26T02:42:07.012Z,51.90
2022-08-26T02:44:51.347Z,51.35
2022-08-26T02:47:37.575Z,51.42
2022-08-26T02:50:22.434Z,51.79
2022-08-26T02:53:06.762Z,51.64
2022-08-26T02:55:50.976Z,51.72
2022-08-26T02:58:35.093Z,51.48
2022-08-26T03:01:25.238Z,50.74
2022-08-26T03:04:14.012Z,50.93
2022-08-26T03:06:59.745Z,50.38
2022-08-26T03:09:43.836Z,50.16
2022-08-26T03:12:28.994Z,50.38
2022-08-26T03:15:17.789Z,50.32
2022-08-26T03:18:02.719Z,50.04
2022-08-26T03:20:48.281Z,50.57
2022-08-26T03:23:32.930Z,50.32
2022-08-26T03:26:17.712Z,50.21
2022-08-26T03:29:19.411Z,50.24
2022-08-26T03:32:04.284Z,49.65
2022-08-26T03:34:48.536Z,49.72
2022-08-26T03:37:34.878Z,49.52
2022-08-26T03:40:20.293Z,49.04
2022-08-26T03:43:07.209Z,48.84
2022-08-26T03:45:54.050Z,47.68
2022-08-26T03:48:39.350Z,47.08
2022-08-26T03:51:23.610Z,46.32
2022-08-26T03:54:09.905Z,46.45
2022-08-26T03:56:54.295Z,46.57
2022-08-26T03:59:38.361Z,46.77
2022-08-26T04:02:25.999Z,46.39
2022-08-26T04:05:10.542Z,46.45
2022-08-26T04:07:54.725Z,47.40
2022-08-26T04:10:40.275Z,47.17
2022-08-26T04:13:24.369Z,46.50
2022-08-26T04:16:10.149Z,46.47
2022-08-26T04:18:54.664Z,46.73
2022-08-26T04:21:38.973Z,46.98
2022-08-26T04:24:26.136Z,46.38
2022-08-26T04:27:13.583Z,46.61
2022-08-26T04:29:57.781Z,46.19
2022-08-26T04:32:41.853Z,46.01
2022-08-26T04:35:26.326Z,46.23
2022-08-26T04:38:10.582Z,45.83
2022-08-26T04:40:54.765Z,46.17
2022-08-26T04:43:41.931Z,46.06
2022-08-26T04:46:26.606Z,45.07
2022-08-26T04:49:10.966Z,45.72
2022-08-26T04:51:55.339Z,45.83
2022-08-26T04:54:41.993Z,45.48
2022-08-26T04:57:26.231Z,44.91
2022-08-26T05:00:13.521Z,44.75
2022-08-26T05:02:57.666Z,43.66
2022-08-26T05:05:43.851Z,44.53
2022-08-26T05:08:28.107Z,44.10
2022-08-26T05:11:12.392Z,44.33
2022-08-26T05:13:58.193Z,44.84
2022-08-26T05:16:47.687Z,44.80
2022-08-26T05:19:32.707Z,44.59
2022-08-26T05:22:17.439Z,44.44
2022-08-26T05:25:02.683Z,43.90
2022-08-26T05:27:47.136Z,43.79
2022-08-26T05:30:32.588Z,43.93
2022-08-26T05:33:19.893Z,43.87
2022-08-26T05:36:09.434Z,44.38
2022-08-26T05:38:56.005Z,42.75
2022-08-26T05:41:42.550Z,42.03
2022-08-26T05:44:29.012Z,41.08
2022-08-26T05:47:20.187Z,41.27
2022-08-26T05:50:07.281Z,40.56
2022-08-26T05:52:51.710Z,41.12
2022-08-26T05:55:36.087Z,40.30
2022-08-26T05:58:24.207Z,39.86
2022-08-26T06:01:10.544Z,38.63
2022-08-26T06:04:00.710Z,38.92
2022-08-26T06:06:47.451Z,38.97
2022-08-26T06:09:31.644Z,37.57
2022-08-26T06:12:16.769Z,37.00
2022-08-26T06:15:02.602Z,35.57
2022-08-26T06:17:48.532Z,35.07
2022-08-26T06:20:32.925Z,35.28
2022-08-26T06:23:37.593Z,35.59
2022-08-26T06:26:24.636Z,35.47
2022-08-26T06:29:09.505Z,34.88
2022-08-26T06:31:56.275Z,33.79
2022-08-26T06:34:40.540Z,35.03
2022-08-26T06:37:25.709Z,36.36
2022-08-26T06:40:12.555Z,36.22
2022-08-26T06:42:56.689Z,34.93
2022-08-26T06:45:41.217Z,34.43
2022-08-26T06:48:25.498Z,34.55
2022-08-26T06:51:14.491Z,34.79
2022-08-26T06:54:00.767Z,34.10
2022-08-26T06:56:46.287Z,33.71
2022-08-26T06:59:32.496Z,33.56
2022-08-26T07:02:16.747Z,32.55
2022-08-26T07:05:02.040Z,32.11
2022-08-26T07:07:48.287Z,33.39
2022-08-26T07:10:32.864Z,33.64
2022-08-26T07:13:18.533Z,33.37
2022-08-26T07:16:17.827Z,33.84
2022-08-26T07:19:03.495Z,34.09
2022-08-26T07:21:55.584Z,33.73
2022-08-26T07:24:42.577Z,33.54
2022-08-26T07:27:27.420Z,33.52
2022-08-26T07:30:15.034Z,33.36
2022-08-26T07:32:59.560Z,33.58
2022-08-26T07:35:44.631Z,34.39
2022-08-26T07:38:28.880Z,33.89
2022-08-26T07:41:17.727Z,33.90
2022-08-26T07:45:01.951Z,100.00
2022-08-26T07:47:49.067Z,33.74
2022-08-26T07:50:48.983Z,33.77
2022-08-26T07:53:35.918Z,32.80
2022-08-26T07:56:20.212Z,32.90
2022-08-26T07:59:13.808Z,33.05
2022-08-26T08:02:00.870Z,32.14
2022-08-26T08:04:46.636Z,32.16
2022-08-26T08:07:44.620Z,33.03
2022-08-26T08:10:30.129Z,32.64
2022-08-26T08:14:14.519Z,100.00
2022-08-26T08:16:58.878Z,32.83
2022-08-26T08:19:43.225Z,33.37
2022-08-26T08:22:29.039Z,33.94
2022-08-26T08:25:14.137Z,34.15
2022-08-26T08:27:58.220Z,34.09
2022-08-26T08:30:43.019Z,34.22
2022-08-26T08:33:30.366Z,34.44
2022-08-26T08:36:18.594Z,34.16
2022-08-26T08:39:06.360Z,34.18
2022-08-26T08:42:04.372Z,33.49
2022-08-26T08:44:52.592Z,34.32
2022-08-26T08:47:42.226Z,33.42
2022-08-26T08:50:31.553Z,33.89
2022-08-26T08:53:19.082Z,33.26
2022-08-26T08:56:13.566Z,33.55
2022-08-26T08:59:06.394Z,33.36
2022-08-26T09:02:02.383Z,32.35
2022-08-26T09:05:04.766Z,32.46
2022-08-26T09:07:53.576Z,33.68
2022-08-26T09:10:42.301Z,34.28
2022-08-26T09:13:31.841Z,33.63
2022-08-26T09:16:21.670Z,33.53
2022-08-26T09:19:19.691Z,32.79
2022-08-26T09:22:08.655Z,32.83
2022-08-26T09:24:53.721Z,32.83
2022-08-26T09:27:40.588Z,33.27
2022-08-26T09:30:29.700Z,33.01
2022-08-26T09:33:18.330Z,32.91
2022-08-26T09:36:26.438Z,32.60
2022-08-26T09:39:29.872Z,31.80
2022-08-26T09:42:22.499Z,32.31
2022-08-26T09:45:10.642Z,31.57
2022-08-26T09:48:01.332Z,32.21
2022-08-26T09:50:55.021Z,31.88
2022-08-26T09:53:53.718Z,32.04
2022-08-26T09:56:39.655Z,31.93
2022-08-26T09:59:31.833Z,31.91
2022-08-26T10:02:36.488Z,31.42
2022-08-26T10:05:31.703Z,30.31
2022-08-26T10:08:26.248Z,30.90
2022-08-26T10:11:19.732Z,30.81
2022-08-26T10:14:17.173Z,30.53
2022-08-26T10:17:06.998Z,31.27
2022-08-26T10:19:57.997Z,31.21
2022-08-26T10:22:49.618Z,31.00
2022-08-26T10:25:38.923Z,29.96
2022-08-26T10:28:35.090Z,30.73
2022-08-26T10:31:30.599Z,31.48
2022-08-26T10:34:24.436Z,31.25
2022-08-26T10:37:16.278Z,31.00
2022-08-26T10:40:09.521Z,30.64
2022-08-26T10:42:59.665Z,30.52
2022-08-26T10:45:49.045Z,30.94
2022-08-26T10:48:44.657Z,29.85
2022-08-26T10:51:35.734Z,29.88
2022-08-26T10:54:32.990Z,28.88
2022-08-26T10:57:24.812Z,29.23
2022-08-26T11:00:32.645Z,28.93
2022-08-26T11:03:31.602Z,29.80
2022-08-26T11:06:24.991Z,29.79
2022-08-26T11:09:10.022Z,29.15
2022-08-26T11:11:54.068Z,29.51
2022-08-26T11:14:53.643Z,29.71
2022-08-26T11:17:58.404Z,29.38
2022-08-26T11:20:46.123Z,28.94
2022-08-26T11:23:50.430Z,28.92
2022-08-26T11:26:56.346Z,29.02
2022-08-26T11:30:04.929Z,29.02
2022-08-26T11:32:52.655Z,28.17
2022-08-26T11:35:50.896Z,28.55
2022-08-26T11:38:37.035Z,30.99
2022-08-26T11:41:29.281Z,31.00
2022-08-26T11:44:17.496Z,31.13
2022-08-26T11:47:03.429Z,31.26
2022-08-26T11:49:47.367Z,29.93
2022-08-26T11:52:31.258Z,29.49
2022-08-26T11:55:17.273Z,29.94
2022-08-26T11:58:05.081Z,30.08
2022-08-26T12:00:53.721Z,29.89
2022-08-26T12:03:42.917Z,30.10
2022-08-26T12:06:30.835Z,30.93
2022-08-26T12:09:21.928Z,30.83
2022-08-26T12:12:14.564Z,31.54
2022-08-26T12:15:15.505Z,30.64
2022-08-26T12:18:17.146Z,30.72
2022-08-26T12:21:13.179Z,30.59
2022-08-26T12:23:59.101Z,30.70
2022-08-26T12:26:43.120Z,31.02
2022-08-26T12:29:29.262Z,31.74
2022-08-26T12:32:15.496Z,31.14
2022-08-26T12:37:51.733Z,32.32
2022-08-26T12:40:40.753Z,32.17
2022-08-26T12:43:43.073Z,31.81
2022-08-26T12:46:30.410Z,32.45
2022-08-26T12:49:19.456Z,33.72
2022-08-26T12:52:03.798Z,33.47
2022-08-26T12:55:01.275Z,33.63
2022-08-26T12:57:45.366Z,33.44
2022-08-26T13:00:34.776Z,33.74
2022-08-26T13:03:43.644Z,33.61
2022-08-26T13:06:30.163Z,33.94
2022-08-26T13:09:31.566Z,33.92
2022-08-26T13:12:30.180Z,33.40
2022-08-26T13:15:14.167Z,33.58
2022-08-26T13:17:58.418Z,33.18
2022-08-26T13:20:45.067Z,32.89
2022-08-26T13:23:29.216Z,33.04
2022-08-26T13:26:13.283Z,33.88
2022-08-26T13:29:01.500Z,33.45
2022-08-26T13:31:47.316Z,33.56
2022-08-26T13:34:31.986Z,33.68
2022-08-26T13:37:16.086Z,33.64
2022-08-26T13:40:00.296Z,33.65
2022-08-26T13:42:49.847Z,33.97
2022-08-26T13:45:35.819Z,33.87
2022-08-26T13:48:22.887Z,33.16
2022-08-26T13:51:09.052Z,33.67
2022-08-26T13:53:54.099Z,33.26
2022-08-26T13:56:38.156Z,32.87
2022-08-26T13:59:22.427Z,32.93
2022-08-26T14:02:08.116Z,32.63
2022-08-26T14:04:55.465Z,33.02
2022-08-26T14:07:39.572Z,33.47
2022-08-26T14:10:23.637Z,33.45
2022-08-26T14:13:07.810Z,34.18
2022-08-26T14:15:53.042Z,33.98
2022-08-26T14:18:43.031Z,34.16
2022-08-26T14:21:31.284Z,33.95
2022-08-26T14:24:15.671Z,33.60
2022-08-26T14:26:59.951Z,33.85
2022-08-26T14:29:44.075Z,33.73
2022-08-26T14:32:29.710Z,33.70
2022-08-26T14:35:18.742Z,32.82
2022-08-26T14:38:02.732Z,32.99
2022-08-26T14:40:46.889Z,32.89
2022-08-26T14:43:31.451Z,33.13
2022-08-26T14:46:16.327Z,32.51
2022-08-26T14:49:03.577Z,32.54
2022-08-26T14:51:51.460Z,32.64
2022-08-26T14:54:35.478Z,32.40
2022-08-26T14:57:19.640Z,32.47
2022-08-26T15:00:04.040Z,32.02
2022-08-26T15:02:48.155Z,31.70
2022-08-26T15:05:32.693Z,32.46
2022-08-26T15:08:18.518Z,31.95
2022-08-26T15:11:02.721Z,32.06
2022-08-26T15:13:46.684Z,32.37
2022-08-26T15:16:31.045Z,33.90
2022-08-26T15:19:17.694Z,35.73
2022-08-26T15:22:03.002Z,36.61
2022-08-26T15:24:48.523Z,36.87
2022-08-26T15:27:37.877Z,38.06
2022-08-26T15:30:21.931Z,37.51
2022-08-26T15:33:06.153Z,37.48
2022-08-26T15:36:00.604Z,36.83
2022-08-26T15:38:44.694Z,36.46
2022-08-26T15:41:30.881Z,36.65
2022-08-26T15:44:20.059Z,36.50
2022-08-26T15:47:04.106Z,36.73
2022-08-26T15:49:48.567Z,37.08
2022-08-26T15:52:32.505Z,37.33
2022-08-26T15:55:16.398Z,37.43
2022-08-26T15:58:01.628Z,36.75
2022-08-26T16:00:46.136Z,36.29
2022-08-26T16:03:30.309Z,35.89
2022-08-26T16:06:15.613Z,35.63
2022-08-26T16:09:00.128Z,35.40
2022-08-26T16:11:44.189Z,35.16
2022-08-26T16:14:30.161Z,35.15
2022-08-26T16:17:14.320Z,35.39
2022-08-26T16:19:58.503Z,35.25
2022-08-26T16:22:42.519Z,35.21
2022-08-26T16:25:26.937Z,35.31
2022-08-26T16:28:11.633Z,35.16
2022-08-26T16:30:57.176Z,35.06
2022-08-26T16:33:41.498Z,34.76
2022-08-26T16:36:25.703Z,34.40
2022-08-26T16:39:10.833Z,34.79
2022-08-26T16:41:54.874Z,35.21
2022-08-26T16:44:45.562Z,35.39
2022-08-26T16:47:31.062Z,35.09
2022-08-26T16:50:15.844Z,34.78
2022-08-26T16:52:59.898Z,34.76
2022-08-26T16:55:46.731Z,34.90
2022-08-26T16:58:31.464Z,35.01
2022-08-26T17:01:15.778Z,34.60
2022-08-26T17:04:01.191Z,34.81
2022-08-26T17:06:45.066Z,35.84
2022-08-26T17:09:29.033Z,36.57
2022-08-26T17:12:13.260Z,35.42
2022-08-26T17:14:57.239Z,36.33
2022-08-26T17:17:41.820Z,36.83
2022-08-26T17:20:27.998Z,35.69
2022-08-26T17:23:12.051Z,36.03
2022-08-26T17:25:56.130Z,36.21
2022-08-26T17:28:40.429Z,36.83
2022-08-26T17:31:24.977Z,37.35
2022-08-26T17:34:09.198Z,37.33
2022-08-26T17:36:55.026Z,37.01
2022-08-26T17:39:42.750Z,37.11
2022-08-26T17:42:31.069Z,36.81
2022-08-26T17:45:16.413Z,37.07
2022-08-26T17:48:00.781Z,37.68
2022-08-26T17:50:49.530Z,37.86
2022-08-26T17:53:35.371Z,39.32
2022-08-26T17:56:23.966Z,40.06
2022-08-26T17:59:08.054Z,39.56
2022-08-26T18:01:54.118Z,40.10
2022-08-26T18:04:38.151Z,40.68
2022-08-26T18:07:22.107Z,41.58
2022-08-26T18:10:12.936Z,41.50
2022-08-26T18:12:57.335Z,42.10
2022-08-26T18:15:42.263Z,42.83
2022-08-26T18:18:26.462Z,43.23
2022-08-26T18:21:14.290Z,43.76
2022-08-26T18:23:58.697Z,45.35
2022-08-26T18:26:48.894Z,46.10
2022-08-26T18:29:32.879Z,47.26
2022-08-26T18:32:17.397Z,47.55
2022-08-26T18:35:01.430Z,48.28
2022-08-26T18:37:47.381Z,49.04
2022-08-26T18:40:31.722Z,49.16
2022-08-26T18:43:18.272Z,50.05
2022-08-26T18:46:04.101Z,51.47
2022-08-26T18:48:50.745Z,54.74
2022-08-26T18:51:36.877Z,55.69
2022-08-26T18:54:21.820Z,55.28
2022-08-26T18:57:06.319Z,54.02
2022-08-26T18:59:52.451Z,53.90
2022-08-26T19:02:36.700Z,53.60
2022-08-26T19:05:22.373Z,54.06
2022-08-26T19:08:06.387Z,54.58
2022-08-26T19:10:50.925Z,56.22
2022-08-26T19:13:35.735Z,56.90
2022-08-26T19:16:24.060Z,56.65
2022-08-26T19:19:08.207Z,56.55
2022-08-26T19:21:52.775Z,57.16
2022-08-26T19:24:36.865Z,58.48
2022-08-26T19:27:21.038Z,58.99
2022-08-26T19:30:05.548Z,59.90
2022-08-26T19:32:51.251Z,61.69
2022-08-26T19:35:36.309Z,62.11
2022-08-26T19:38:21.113Z,62.00
2022-08-26T19:41:05.217Z,61.60
2022-08-26T19:43:49.632Z,61.83
2022-08-26T19:46:36.073Z,62.10
2022-08-26T19:49:21.649Z,62.08
2022-08-26T19:52:07.016Z,62.44
2022-08-26T19:54:51.175Z,62.66
2022-08-26T19:57:36.167Z,63.57
2022-08-26T20:00:23.682Z,64.48
2022-08-26T20:03:08.719Z,64.74
2022-08-26T20:05:58.658Z,63.89
2022-08-26T20:08:44.239Z,63.47
2022-08-26T20:11:28.406Z,63.77
2022-08-26T20:14:12.453Z,63.38
2022-08-26T20:16:56.842Z,63.32
2022-08-26T20:19:58.705Z,63.33
2022-08-26T20:22:44.326Z,63.45
2022-08-26T20:25:28.568Z,63.92
2022-08-26T20:28:12.646Z,63.14
2022-08-26T20:30:57.658Z,62.36
2022-08-26T20:33:46.366Z,60.44
2022-08-26T20:36:31.268Z,60.31
2022-08-26T20:39:17.545Z,60.41
2022-08-26T20:42:01.599Z,59.60
2022-08-26T20:44:54.441Z,61.73
2022-08-26T20:47:40.206Z,62.53
2022-08-26T20:50:24.605Z,63.34
2022-08-26T20:53:09.177Z,62.94
2022-08-26T20:55:55.205Z,63.78
2022-08-26T20:58:40.069Z,63.17
2022-08-26T21:01:28.511Z,62.95
2022-08-26T21:04:14.787Z,62.48
2022-08-26T21:06:58.889Z,62.06
2022-08-26T21:09:44.542Z,62.70
2022-08-26T21:12:31.418Z,62.37
2022-08-26T21:15:16.555Z,62.27
2022-08-26T21:18:01.322Z,62.73
2022-08-26T21:20:45.412Z,63.55
2022-08-26T21:23:29.470Z,63.94
2022-08-26T21:26:15.244Z,63.88
2022-08-26T21:29:02.406Z,64.10
2022-08-26T21:31:46.963Z,63.83
2022-08-26T21:34:31.215Z,64.45
2022-08-26T21:37:16.383Z,64.09
2022-08-26T21:40:03.856Z,64.25
2022-08-26T21:42:48.501Z,64.86
2022-08-26T21:45:34.298Z,64.82
2022-08-26T21:48:18.387Z,64.87
2022-08-26T21:51:02.390Z,64.93
2022-08-26T21:53:46.474Z,64.99
2022-08-26T21:56:32.771Z,64.71
2022-08-26T21:59:19.220Z,64.34
2022-08-26T22:02:07.228Z,63.67
2022-08-26T22:04:51.267Z,63.63
2022-08-26T22:07:35.389Z,63.23
2022-08-26T22:10:19.481Z,63.50
2022-08-26T22:13:03.538Z,64.24
2022-08-26T22:15:48.689Z,64.19
2022-08-26T22:18:34.393Z,63.82
2022-08-26T22:21:20.999Z,64.19
2022-08-26T22:24:07.223Z,64.35
2022-08-26T22:26:51.741Z,64.42
2022-08-26T22:29:36.089Z,64.71
2022-08-26T22:32:20.075Z,65.27
2022-08-26T22:35:28.415Z,64.97
2022-08-26T22:38:11.239Z,64.76
2022-08-26T22:40:57.568Z,64.81
2022-08-26T22:43:42.043Z,65.00
2022-08-26T22:46:27.840Z,64.09
2022-08-26T22:49:15.879Z,63.61
2022-08-26T22:52:01.722Z,63.02
2022-08-26T22:54:45.773Z,62.52
2022-08-26T22:57:29.886Z,63.03
2022-08-26T23:00:14.855Z,63.33
2022-08-26T23:02:59.242Z,64.07
2022-08-26T23:05:44.869Z,63.99
2022-08-26T23:08:31.533Z,64.52
2022-08-26T23:11:16.396Z,64.04
2022-08-26T23:14:00.595Z,64.11
2022-08-26T23:16:47.735Z,64.10
2022-08-26T23:19:32.043Z,63.81
2022-08-26T23:22:16.991Z,63.31
2022-08-26T23:25:02.710Z,63.79
2022-08-26T23:27:53.103Z,63.95
2022-08-26T23:30:37.265Z,63.29
2022-08-26T23:33:21.427Z,63.17
2022-08-26T23:36:07.061Z,63.31
2022-08-26T23:38:53.327Z,63.12
2022-08-26T23:41:39.033Z,62.83
2022-08-26T23:44:23.065Z,62.45
2022-08-26T23:47:07.909Z,62.15
2022-08-26T23:49:51.943Z,62.54
2022-08-26T23:52:53.385Z,62.20
2022-08-26T23:55:38.706Z,62.11
2022-08-26T23:58:24.371Z,61.71
